CYES weather

Edmundston Airport
Edmundston, New Brunswick, Canada

Public forecast

Using degrees Celsius for public forecast. Weather courtesy of forecast.io.

Closest aviation weather report (METAR) to Edmundston Airport

Closest report is Northern Aroostook Regional Airport, 14.1 nm (26.1 km) SSE. Retrieved 2020/04/04 09:53 UTC (48 minutes ago):

KFVE 040953Z AUTO 06005KT 10SM BKN013 OVC040 M01/M04 A3010 RMK AO2 SLP202 T10061039

Closest aviation forecast (TAF) to Edmundston Airport

Closest forecast is Northern Aroostook Regional Airport, 14.1 nm (26.1 km) SSE. Retrieved 2020/04/04 06:48 UTC (4 hours ago):

TAF KFVE 040545Z 0406/0506 06012G18KT P6SM OVC040 FM040800 04008KT P6SM BKN020 FM042200 00000KT P6SM BKN024